Wetterdaten: Woche 16.02.15 - 22.02.15 (KW8)
Datum Zeit Temp. A. Feuchte A. Luftdruck Regen Wind Richtung Taupunkt Windchill Windben
16.02.2015 00:00 -1,8 C 84 % 1021,0 hPa 0,0 l/m 0,0 km/h N -4,2 C -1,8 C 0,0 km/h
16.02.2015 01:00 -2,2 C 85 % 1021,3 hPa 0,0 l/m 0,0 km/h N -4,4 C -2,2 C 0,4 km/h
16.02.2015 02:00 -2,6 C 86 % 1021,7 hPa 0,0 l/m 0,0 km/h N -4,6 C -2,6 C 0,0 km/h
16.02.2015 03:00 -3,1 C 86 % 1022,0 hPa 0,0 l/m 0,0 km/h N -5,1 C -3,1 C 0,0 km/h
16.02.2015 04:00 -3,5 C 86 % 1022,4 hPa 0,0 l/m 0,0 km/h N -5,5 C -3,5 C 0,0 km/h
16.02.2015 05:00 -3,9 C 86 % 1022,8 hPa 0,0 l/m 0,0 km/h N -5,9 C -3,9 C 0,0 km/h
16.02.2015 06:00 -4,3 C 86 % 1023,4 hPa 0,0 l/m 0,0 km/h N -6,3 C -4,3 C 0,0 km/h
16.02.2015 07:00 -4,3 C 86 % 1023,8 hPa 0,0 l/m 0,0 km/h N -6,3 C -4,3 C 0,0 km/h
16.02.2015 08:00 -2,9 C 84 % 1023,9 hPa 0,0 l/m 0,0 km/h N -5,2 C -2,9 C 0,0 km/h
16.02.2015 09:00 1,4 C 83 % 1024,0 hPa 0,0 l/m 0,4 km/h N -1,1 C 1,4 C 3,6 km/h
16.02.2015 10:00 4,7 C 78 % 1024,0 hPa 0,0 l/m 1,6 km/h N 1,0 C 4,7 C 6,8 km/h
16.02.2015 11:00 6,4 C 66 % 1024,0 hPa 0,0 l/m 1,3 km/h N 0,6 C 6,4 C 6,4 km/h
16.02.2015 12:00 7,8 C 64 % 1023,7 hPa 0,0 l/m 1,1 km/h N 1,4 C 7,8 C 8,4 km/h
16.02.2015 13:00 9,9 C 55 % 1023,1 hPa 0,0 l/m 1,8 km/h N 1,2 C 9,9 C 10,5 km/h
16.02.2015 14:00 10,2 C 49 % 1022,9 hPa 0,0 l/m 2,4 km/h N -0,2 C 10,2 C 11,3 km/h
16.02.2015 15:00 9,8 C 52 % 1023,0 hPa 0,0 l/m 2,4 km/h N 0,5 C 9,8 C 10,9 km/h
16.02.2015 16:00 9,0 C 54 % 1023,0 hPa 0,0 l/m 1,8 km/h N 0,2 C 9,0 C 9,3 km/h
16.02.2015 17:00 7,5 C 57 % 1023,7 hPa 0,0 l/m 0,9 km/h N -0,5 C 7,5 C 6,8 km/h
16.02.2015 18:00 5,6 C 62 % 1024,6 hPa 0,0 l/m 0,1 km/h N -1,1 C 5,6 C 1,6 km/h
16.02.2015 19:00 2,7 C 69 % 1025,3 hPa 0,0 l/m 0,0 km/h N -2,4 C 2,7 C 0,0 km/h
16.02.2015 20:00 1,1 C 77 % 1025,7 hPa 0,0 l/m 0,0 km/h N -2,4 C 1,1 C 0,8 km/h
16.02.2015 21:00 1,8 C 81 % 1025,8 hPa 0,0 l/m 0,8 km/h N -1,0 C 1,8 C 5,2 km/h
16.02.2015 22:00 2,4 C 77 % 1026,0 hPa 0,0 l/m 0,3 km/h N -1,2 C 2,4 C 2,4 km/h
16.02.2015 23:00 -0,0 C 77 % 1026,3 hPa 0,0 l/m 0,0 km/h N -3,5 C -0,0 C 0,0 km/h
17.02.2015 00:00 -0,8 C 82 % 1026,7 hPa 0,0 l/m 0,1 km/h N -3,5 C -0,8 C 0,8 km/h
17.02.2015 01:00 -0,1 C 84 % 1027,2 hPa 0,0 l/m 0,4 km/h N -2,4 C -0,1 C 5,6 km/h
17.02.2015 02:00 0,7 C 84 % 1027,7 hPa 0,0 l/m 0,9 km/h N -1,8 C 0,7 C 7,2 km/h
17.02.2015 03:00 0,4 C 83 % 1028,1 hPa 0,0 l/m 1,0 km/h N -2,1 C 0,4 C 6,0 km/h
17.02.2015 04:00 -0,0 C 83 % 1028,7 hPa 0,0 l/m 0,3 km/h N -2,6 C -0,0 C 3,2 km/h
17.02.2015 05:00 -1,3 C 83 % 1029,3 hPa 0,0 l/m 0,0 km/h N -3,8 C -1,3 C 0,0 km/h
17.02.2015 06:00 -1,4 C 84 % 1029,9 hPa 0,0 l/m 2,1 km/h N -3,7 C -1,4 C 7,6 km/h
17.02.2015 07:00 -0,7 C 83 % 1031,1 hPa 0,0 l/m 4,3 km/h N -3,3 C -0,7 C 12,5 km/h
17.02.2015 08:00 -0,3 C 82 % 1031,8 hPa 0,0 l/m 5,1 km/h N -3,0 C -0,3 C 14,5 km/h
17.02.2015 09:00 0,3 C 81 % 1032,4 hPa 0,0 l/m 4,8 km/h N -2,6 C 0,3 C 16,9 km/h
17.02.2015 10:00 1,3 C 80 % 1033,2 hPa 0,0 l/m 4,6 km/h N -1,9 C 1,3 C 18,1 km/h
17.02.2015 11:00 3,0 C 75 % 1033,5 hPa 0,0 l/m 5,9 km/h N -0,9 C 2,8 C 19,3 km/h
17.02.2015 12:00 4,2 C 71 % 1033,4 hPa 0,0 l/m 5,7 km/h N -0,5 C 4,2 C 18,9 km/h
17.02.2015 13:00 5,6 C 68 % 1033,0 hPa 0,0 l/m 6,1 km/h N 0,1 C 5,4 C 21,7 km/h
17.02.2015 14:00 5,2 C 68 % 1033,5 hPa 0,0 l/m 5,8 km/h N -0,2 C 5,2 C 21,3 km/h
17.02.2015 15:00 4,8 C 70 % 1033,8 hPa 0,0 l/m 4,9 km/h N -0,2 C 4,8 C 18,9 km/h
17.02.2015 16:00 3,6 C 74 % 1034,2 hPa 0,0 l/m 3,3 km/h N -0,7 C 3,6 C 12,5 km/h
17.02.2015 17:00 2,5 C 77 % 1035,0 hPa 0,0 l/m 1,6 km/h N -1,1 C 2,5 C 9,6 km/h
17.02.2015 18:00 1,5 C 79 % 1035,8 hPa 0,0 l/m 0,7 km/h N -1,8 C 1,5 C 6,4 km/h
17.02.2015 19:00 1,1 C 80 % 1036,4 hPa 0,0 l/m 1,4 km/h N -2,0 C 1,1 C 9,7 km/h
17.02.2015 20:00 0,5 C 80 % 1037,1 hPa 0,0 l/m 0,8 km/h N -2,5 C 0,5 C 6,4 km/h
17.02.2015 21:00 0,1 C 81 % 1037,8 hPa 0,0 l/m 0,5 km/h N -2,7 C 0,1 C 4,0 km/h
17.02.2015 22:00 -0,4 C 82 % 1038,2 hPa 0,0 l/m 0,0 km/h N -3,1 C -0,4 C 1,2 km/h
17.02.2015 23:00 -1,0 C 83 % 1038,5 hPa 0,0 l/m 0,0 km/h N -3,5 C -1,0 C 0,0 km/h
18.02.2015 00:00 -0,8 C 84 % 1039,0 hPa 0,0 l/m 0,0 km/h N -3,2 C -0,8 C 0,0 km/h
18.02.2015 01:00 -1,2 C 84 % 1039,3 hPa 0,0 l/m 0,0 km/h N -3,5 C -1,2 C 0,0 km/h
18.02.2015 02:00 -1,3 C 85 % 1039,6 hPa 0,0 l/m 0,0 km/h N -3,4 C -1,3 C 0,0 km/h
18.02.2015 03:00 -0,9 C 86 % 1039,6 hPa 0,0 l/m 0,0 km/h N -3,0 C -0,9 C 0,0 km/h
18.02.2015 04:00 -0,7 C 88 % 1039,7 hPa 0,0 l/m 0,0 km/h N -2,5 C -0,7 C 0,0 km/h
18.02.2015 05:00 -0,6 C 86 % 1040,1 hPa 0,0 l/m 0,0 km/h N -2,6 C -0,6 C 0,0 km/h
18.02.2015 06:00 -0,1 C 86 % 1040,5 hPa 0,0 l/m 0,3 km/h N -2,2 C -0,1 C 2,4 km/h
18.02.2015 07:00 -0,3 C 86 % 1041,1 hPa 0,0 l/m 0,0 km/h N -2,3 C -0,3 C 0,0 km/h
18.02.2015 08:00 -0,2 C 86 % 1041,5 hPa 0,0 l/m 0,2 km/h N -2,3 C -0,2 C 1,2 km/h
18.02.2015 09:00 0,6 C 86 % 1041,8 hPa 0,0 l/m 1,8 km/h N -1,5 C 0,6 C 6,4 km/h
18.02.2015 10:00 1,1 C 85 % 1041,9 hPa 0,0 l/m 2,6 km/h N -1,2 C 1,1 C 7,6 km/h
18.02.2015 11:00 1,3 C 83 % 1041,9 hPa 0,0 l/m 2,5 km/h N -1,2 C 1,3 C 7,6 km/h
18.02.2015 12:00 1,8 C 81 % 1041,4 hPa 0,0 l/m 2,3 km/h N -1,2 C 1,8 C 8,0 km/h
18.02.2015 13:00 2,4 C 77 % 1040,9 hPa 0,0 l/m 2,1 km/h N -1,3 C 2,4 C 7,6 km/h
18.02.2015 14:00 2,6 C 74 % 1040,5 hPa 0,0 l/m 3,1 km/h N -1,5 C 2,6 C 11,3 km/h
18.02.2015 15:00 2,5 C 74 % 1039,9 hPa 0,0 l/m 2,8 km/h N -1,7 C 2,5 C 10,1 km/h
18.02.2015 16:00 2,2 C 74 % 1039,5 hPa 0,0 l/m 2,3 km/h N -1,9 C 2,2 C 10,1 km/h
18.02.2015 17:00 2,0 C 75 % 1039,4 hPa 0,0 l/m 1,8 km/h N -2,0 C 2,0 C 7,6 km/h
18.02.2015 18:00 1,8 C 75 % 1039,6 hPa 0,0 l/m 1,2 km/h N -2,1 C 1,8 C 6,0 km/h
18.02.2015 19:00 1,8 C 75 % 1039,2 hPa 0,0 l/m 1,0 km/h N -2,2 C 1,8 C 6,0 km/h
18.02.2015 20:00 1,7 C 76 % 1039,1 hPa 0,0 l/m 0,5 km/h N -2,1 C 1,7 C 5,2 km/h
18.02.2015 21:00 1,8 C 76 % 1038,9 hPa 0,0 l/m 0,7 km/h N -2,0 C 1,8 C 5,2 km/h
18.02.2015 22:00 1,7 C 76 % 1038,8 hPa 0,0 l/m 1,2 km/h N -2,1 C 1,7 C 5,6 km/h
18.02.2015 23:00 1,6 C 76 % 1038,2 hPa 0,0 l/m 0,8 km/h N -2,1 C 1,6 C 5,6 km/h
19.02.2015 00:00 1,5 C 77 % 1037,7 hPa 0,0 l/m 1,3 km/h N -2,1 C 1,5 C 6,0 km/h
19.02.2015 01:00 1,3 C 77 % 1037,1 hPa 0,0 l/m 0,6 km/h N -2,3 C 1,3 C 4,8 km/h
19.02.2015 02:00 1,2 C 78 % 1036,5 hPa 0,0 l/m 0,3 km/h N -2,2 C 1,2 C 2,8 km/h
19.02.2015 03:00 1,1 C 78 % 1035,6 hPa 0,0 l/m 0,5 km/h N -2,3 C 1,1 C 4,4 km/h
19.02.2015 04:00 0,9 C 78 % 1035,4 hPa 0,0 l/m 0,7 km/h N -2,4 C 0,9 C 6,0 km/h
19.02.2015 05:00 0,8 C 79 % 1035,0 hPa 0,0 l/m 0,1 km/h N -2,4 C 0,8 C 2,0 km/h
19.02.2015 06:00 0,8 C 80 % 1034,7 hPa 0,0 l/m 0,2 km/h N -2,3 C 0,8 C 2,8 km/h
19.02.2015 07:00 0,8 C 80 % 1034,6 hPa 0,0 l/m 0,2 km/h N -2,2 C 0,8 C 3,2 km/h
19.02.2015 08:00 1,1 C 80 % 1034,8 hPa 0,0 l/m 0,3 km/h N -1,9 C 1,1 C 4,0 km/h
19.02.2015 09:00 1,7 C 78 % 1034,4 hPa 0,0 l/m 1,0 km/h N -1,6 C 1,7 C 6,0 km/h
19.02.2015 10:00 2,3 C 77 % 1033,9 hPa 0,0 l/m 0,6 km/h N -1,4 C 2,3 C 4,8 km/h
19.02.2015 11:00 3,5 C 72 % 1033,3 hPa 0,0 l/m 1,0 km/h N -1,1 C 3,5 C 4,4 km/h
19.02.2015 12:00 4,4 C 71 % 1032,4 hPa 0,0 l/m 1,0 km/h N -0,4 C 4,4 C 6,0 km/h
19.02.2015 13:00 5,3 C 68 % 1031,4 hPa 0,0 l/m 1,6 km/h N -0,0 C 5,3 C 7,7 km/h
19.02.2015 14:00 5,4 C 68 % 1030,7 hPa 0,0 l/m 0,2 km/h N -0,1 C 5,4 C 3,2 km/h
19.02.2015 15:00 5,3 C 68 % 1030,1 hPa 0,0 l/m 0,6 km/h N -0,2 C 5,3 C 5,2 km/h
19.02.2015 16:00 4,4 C 70 % 1029,6 hPa 0,0 l/m 0,6 km/h N -0,7 C 4,4 C 4,4 km/h
19.02.2015 17:00 3,4 C 72 % 1029,3 hPa 0,0 l/m 0,0 km/h N -1,2 C 3,4 C 0,4 km/h
19.02.2015 18:00 1,1 C 74 % 1029,6 hPa 0,0 l/m 0,0 km/h N -2,9 C 1,1 C 0,0 km/h
19.02.2015 19:00 -0,7 C 79 % 1029,3 hPa 0,0 l/m 0,0 km/h N -3,9 C -0,7 C 0,0 km/h
19.02.2015 20:00 -1,8 C 82 % 1028,9 hPa 0,0 l/m 0,0 km/h N -4,5 C -1,8 C 0,0 km/h
19.02.2015 21:00 -2,4 C 84 % 1028,5 hPa 0,0 l/m 0,0 km/h N -4,9 C -2,4 C 0,0 km/h
19.02.2015 22:00 -3,0 C 85 % 1028,0 hPa 0,0 l/m 0,0 km/h N -5,1 C -3,0 C 0,0 km/h
19.02.2015 23:00 -3,5 C 85 % 1027,5 hPa 0,0 l/m 0,0 km/h N -5,6 C -3,5 C 0,0 km/h
20.02.2015 00:00 -3,8 C 86 % 1027,0 hPa 0,0 l/m 0,0 km/h N -5,9 C -3,8 C 0,0 km/h
20.02.2015 01:00 -4,1 C 86 % 1026,3 hPa 0,0 l/m 0,0 km/h N -6,1 C -4,1 C 0,0 km/h
20.02.2015 02:00 -4,3 C 86 % 1026,1 hPa 0,0 l/m 0,0 km/h N -6,3 C -4,3 C 0,0 km/h
20.02.2015 03:00 -4,7 C 86 % 1025,7 hPa 0,0 l/m 0,0 km/h N -6,7 C -4,7 C 0,0 km/h
20.02.2015 04:00 -5,1 C 86 % 1025,3 hPa 0,0 l/m 0,0 km/h N -7,1 C -5,1 C 0,0 km/h
20.02.2015 05:00 -5,3 C 86 % 1025,2 hPa 0,0 l/m 0,0 km/h N -7,3 C -5,3 C 0,0 km/h
20.02.2015 06:00 -5,7 C 86 % 1025,3 hPa 0,0 l/m 0,0 km/h N -7,7 C -5,7 C 0,0 km/h
20.02.2015 07:00 -5,8 C 86 % 1025,4 hPa 0,0 l/m 0,0 km/h N -7,8 C -5,8 C 0,0 km/h
20.02.2015 08:00 -4,3 C 85 % 1025,3 hPa 0,0 l/m 0,0 km/h N -6,5 C -4,3 C 0,8 km/h
20.02.2015 09:00 -0,8 C 84 % 1024,8 hPa 0,0 l/m 0,0 km/h N -3,2 C -0,8 C 2,4 km/h
20.02.2015 10:00 0,3 C 86 % 1024,3 hPa 0,0 l/m 0,8 km/h N -1,8 C 0,3 C 4,8 km/h
20.02.2015 11:00 1,5 C 84 % 1023,9 hPa 0,0 l/m 0,8 km/h N -0,9 C 1,5 C 4,8 km/h
20.02.2015 12:00 3,8 C 75 % 1022,8 hPa 0,0 l/m 1,6 km/h N -0,3 C 3,8 C 6,4 km/h
20.02.2015 13:00 6,1 C 67 % 1021,6 hPa 0,0 l/m 0,8 km/h N 0,3 C 6,1 C 8,1 km/h
20.02.2015 14:00 7,3 C 65 % 1020,7 hPa 0,0 l/m 1,6 km/h N 1,2 C 7,3 C 8,0 km/h
20.02.2015 15:00 7,8 C 67 % 1019,6 hPa 0,0 l/m 0,0 km/h N 2,0 C 7,8 C 4,8 km/h
20.02.2015 16:00 7,6 C 67 % 1018,8 hPa 0,0 l/m 0,0 km/h N 1,8 C 7,6 C 4,8 km/h
20.02.2015 17:00 5,9 C 70 % 1017,9 hPa 0,0 l/m 0,0 km/h N 0,7 C 5,9 C 1,6 km/h
20.02.2015 18:00 2,9 C 74 % 1017,8 hPa 0,0 l/m 0,0 km/h N -1,3 C 2,9 C 0,8 km/h
20.02.2015 19:00 0,6 C 80 % 1017,3 hPa 0,0 l/m 0,0 km/h N -2,5 C 0,6 C 0,8 km/h
20.02.2015 20:00 -0,9 C 83 % 1016,4 hPa 0,0 l/m 0,0 km/h N -3,5 C -0,9 C 0,0 km/h
20.02.2015 21:00 -1,7 C 84 % 1015,3 hPa 0,0 l/m 0,0 km/h N -4,0 C -1,7 C 0,0 km/h
20.02.2015 22:00 -2,0 C 86 % 1013,9 hPa 0,0 l/m 0,0 km/h N -4,0 C -2,0 C 0,8 km/h
20.02.2015 23:00 -1,0 C 86 % 1012,3 hPa 0,0 l/m 0,0 km/h N -3,1 C -1,0 C 5,6 km/h
21.02.2015 00:00 0,6 C 84 % 1010,8 hPa 0,0 l/m 1,6 km/h N -1,8 C 0,6 C 8,9 km/h
21.02.2015 01:00 0,2 C 80 % 1009,5 hPa 0,0 l/m 0,0 km/h N -3,0 C 0,2 C 3,2 km/h
21.02.2015 02:00 -1,2 C 81 % 1008,3 hPa 0,0 l/m 0,0 km/h N -4,0 C -1,2 C 0,0 km/h
21.02.2015 03:00 -1,8 C 83 % 1006,9 hPa 0,0 l/m 0,0 km/h N -4,4 C -1,8 C 0,8 km/h
21.02.2015 04:00 -2,3 C 83 % 1006,0 hPa 0,0 l/m 0,0 km/h N -4,7 C -2,3 C 2,4 km/h
21.02.2015 05:00 -2,4 C 84 % 1005,2 hPa 0,0 l/m 0,0 km/h N -4,7 C -2,4 C 1,6 km/h
21.02.2015 06:00 -2,3 C 85 % 1004,4 hPa 0,0 l/m 0,0 km/h N -4,5 C -2,3 C 1,6 km/h
21.02.2015 07:00 -2,1 C 85 % 1004,2 hPa 0,0 l/m 0,0 km/h N -4,3 C -2,1 C 0,8 km/h
21.02.2015 08:00 -0,1 C 85 % 1003,8 hPa 0,0 l/m 0,0 km/h N -2,4 C -0,1 C 4,0 km/h
21.02.2015 09:00 2,3 C 75 % 1003,7 hPa 0,0 l/m 1,4 km/h N -1,8 C 2,3 C 4,8 km/h
21.02.2015 10:00 4,8 C 65 % 1003,3 hPa 0,0 l/m 3,7 km/h N -1,3 C 4,8 C 9,3 km/h
21.02.2015 11:00 7,2 C 57 % 1003,3 hPa 0,0 l/m 5,6 km/h N -0,9 C 7,0 C 15,3 km/h
21.02.2015 12:00 8,9 C 51 % 1002,9 hPa 0,0 l/m 5,3 km/h N -0,8 C 8,9 C 13,3 km/h
21.02.2015 13:00 10,6 C 46 % 1002,2 hPa 0,0 l/m 1,7 km/h N -0,5 C 10,6 C 8,9 km/h
21.02.2015 14:00 11,3 C 43 % 1002,2 hPa 0,0 l/m 0,6 km/h N -1,0 C 11,3 C 5,6 km/h
21.02.2015 15:00 11,2 C 41 % 1002,1 hPa 0,0 l/m 0,4 km/h N -1,7 C 11,2 C 4,8 km/h
21.02.2015 16:00 10,8 C 43 % 1001,8 hPa 0,0 l/m 0,3 km/h N -1,2 C 10,8 C 2,0 km/h
21.02.2015 17:00 8,2 C 48 % 1001,8 hPa 0,0 l/m 0,0 km/h N -2,1 C 8,2 C 0,0 km/h
21.02.2015 18:00 4,7 C 58 % 1002,3 hPa 0,0 l/m 0,0 km/h N -2,9 C 4,7 C 0,0 km/h
21.02.2015 19:00 1,9 C 68 % 1002,1 hPa 0,0 l/m 0,0 km/h N -3,4 C 1,9 C 0,0 km/h
21.02.2015 20:00 0,3 C 75 % 1001,8 hPa 0,0 l/m 0,2 km/h N -3,7 C 0,3 C 2,4 km/h
21.02.2015 21:00 -0,7 C 79 % 1001,6 hPa 0,0 l/m 0,1 km/h N -3,9 C -0,7 C 0,8 km/h
21.02.2015 22:00 -1,4 C 81 % 1001,4 hPa 0,0 l/m 0,0 km/h N -4,2 C -1,4 C 0,8 km/h
21.02.2015 23:00 -1,9 C 83 % 1001,5 hPa 0,0 l/m 0,1 km/h N -4,4 C -1,9 C 0,4 km/h
22.02.2015 00:00 -2,2 C 84 % 1001,8 hPa 0,0 l/m 0,1 km/h N -4,6 C -2,2 C 1,6 km/h
22.02.2015 01:00 -2,5 C 85 % 1002,2 hPa 0,0 l/m 0,0 km/h N -4,7 C -2,5 C 0,0 km/h
22.02.2015 02:00 -2,3 C 86 % 1002,3 hPa 0,0 l/m 0,1 km/h N -4,4 C -2,3 C 1,2 km/h
22.02.2015 03:00 -2,2 C 85 % 1002,6 hPa 0,0 l/m 0,0 km/h N -4,3 C -2,2 C 0,4 km/h
22.02.2015 04:00 -2,6 C 85 % 1003,7 hPa 0,0 l/m 0,2 km/h N -4,7 C -2,6 C 2,0 km/h
22.02.2015 05:00 -2,2 C 86 % 1004,1 hPa 0,0 l/m 0,2 km/h N -4,2 C -2,2 C 0,8 km/h
22.02.2015 06:00 -2,8 C 86 % 1004,8 hPa 0,0 l/m 0,0 km/h N -4,8 C -2,8 C 0,0 km/h
22.02.2015 07:00 -2,2 C 86 % 1006,1 hPa 0,0 l/m 0,2 km/h N -4,2 C -2,2 C 2,4 km/h
22.02.2015 08:00 -0,2 C 86 % 1006,8 hPa 0,0 l/m 0,6 km/h N -2,2 C -0,2 C 3,6 km/h
22.02.2015 09:00 3,2 C 83 % 1006,8 hPa 0,0 l/m 0,6 km/h N 0,6 C 3,2 C 5,2 km/h
22.02.2015 10:00 6,3 C 71 % 1006,9 hPa 0,0 l/m 3,2 km/h N 1,3 C 6,3 C 9,6 km/h
22.02.2015 11:00 6,8 C 67 % 1007,4 hPa 0,0 l/m 6,0 km/h N 1,1 C 6,7 C 16,1 km/h
22.02.2015 12:00 6,8 C 68 % 1007,6 hPa 0,0 l/m 6,4 km/h N 1,3 C 6,5 C 16,1 km/h
22.02.2015 13:00 6,8 C 68 % 1007,5 hPa 0,0 l/m 6,7 km/h N 1,2 C 6,4 C 18,9 km/h
22.02.2015 14:00 6,5 C 69 % 1007,7 hPa 0,0 l/m 6,4 km/h N 1,2 C 6,2 C 18,9 km/h
22.02.2015 15:00 5,2 C 79 % 1008,0 hPa 0,0 l/m 6,7 km/h N 1,8 C 4,7 C 20,1 km/h
22.02.2015 16:00 4,3 C 84 % 1008,8 hPa 1,0 l/m 4,3 km/h N 1,7 C 4,3 C 14,1 km/h
22.02.2015 17:00 3,8 C 85 % 1009,8 hPa 1,3 l/m 3,4 km/h N 1,5 C 3,8 C 10,1 km/h
22.02.2015 18:00 3,8 C 85 % 1010,5 hPa 0,5 l/m 3,6 km/h N 1,5 C 3,8 C 10,1 km/h
22.02.2015 19:00 3,7 C 85 % 1011,1 hPa 0,5 l/m 0,8 km/h N 1,4 C 3,7 C 5,2 km/h
22.02.2015 20:00 3,4 C 85 % 1011,0 hPa 0,3 l/m 4,5 km/h N 1,1 C 3,4 C 14,1 km/h
22.02.2015 21:00 3,1 C 85 % 1010,7 hPa 0,0 l/m 5,7 km/h N 0,8 C 3,1 C 15,7 km/h
22.02.2015 22:00 3,3 C 86 % 1010,6 hPa 0,0 l/m 3,3 km/h N 1,1 C 3,3 C 8,4 km/h
22.02.2015 23:00 3,5 C 86 % 1010,2 hPa 0,0 l/m 2,1 km/h N 1,4 C 3,5 C 8,8 km/h
Min-Datum _ 20.02.15 21.02.15 21.02.15 - 16.02.15 - 20.02.15 20.02.15 16.02.15
_ Min-Zeit 07:30 15:15 22:00 - 00:00 - 07:00 07:00 00:00
Minimum _ -5,9 C 40 % 1001,3 hPa - 0,0 km/h - -7,8 C -5,8 C 0,0 km/h
Max-Datum _ 21.02.15 18.02.15 18.02.15 22.02.15 22.02.15 - 20.02.15 21.02.15 17.02.15
_ Max-Zeit 15:00 04:30 11:30 17:15 15:15 - 15:00 14:45 14:30
Maximum _ 11,6 C 92 % 1042,0 hPa 1,3 l/m 7,8 km/h
N
- 2,1 C 11,5 C 25,7 km/h
N
Durchschnitt _ 1,5 C 77 % 1023,1 hPa #3,6 l/m 1,2 km/h N -2,2 C 1,5 C 5,2 km/h